sensor_id;sensor_type;location;lat;lon;timestamp;P1;durP1;ratioP1;P2;durP2;ratioP2
14276;SDS011;7222;57.346;12.150;2023-09-19T00:00:17;20.27;;;16.60;;
14276;SDS011;7222;57.346;12.150;2023-09-19T00:02:45;20.93;;;17.63;;
14276;SDS011;7222;57.346;12.150;2023-09-19T00:05:13;22.23;;;16.30;;
14276;SDS011;7222;57.346;12.150;2023-09-19T00:07:41;21.93;;;16.63;;
14276;SDS011;7222;57.346;12.150;2023-09-19T00:10:10;21.47;;;15.17;;
14276;SDS011;7222;57.346;12.150;2023-09-19T00:12:37;21.47;;;16.07;;
14276;SDS011;7222;57.346;12.150;2023-09-19T00:15:10;19.27;;;14.90;;
14276;SDS011;7222;57.346;12.150;2023-09-19T00:17:37;19.70;;;13.67;;
14276;SDS011;7222;57.346;12.150;2023-09-19T00:20:06;21.30;;;16.23;;
14276;SDS011;7222;57.346;12.150;2023-09-19T00:22:38;21.20;;;15.13;;
14276;SDS011;7222;57.346;12.150;2023-09-19T00:25:08;19.27;;;14.33;;
14276;SDS011;7222;57.346;12.150;2023-09-19T00:27:37;18.93;;;16.13;;
14276;SDS011;7222;57.346;12.150;2023-09-19T00:30:07;23.50;;;16.87;;
14276;SDS011;7222;57.346;12.150;2023-09-19T00:32:41;16.53;;;14.13;;
14276;SDS011;7222;57.346;12.150;2023-09-19T00:35:09;19.73;;;14.40;;
14276;SDS011;7222;57.346;12.150;2023-09-19T00:37:37;19.80;;;14.40;;
14276;SDS011;7222;57.346;12.150;2023-09-19T00:40:06;19.90;;;15.27;;
14276;SDS011;7222;57.346;12.150;2023-09-19T00:42:37;18.20;;;15.43;;
14276;SDS011;7222;57.346;12.150;2023-09-19T00:45:06;18.43;;;14.10;;
14276;SDS011;7222;57.346;12.150;2023-09-19T00:47:36;15.10;;;12.93;;
14276;SDS011;7222;57.346;12.150;2023-09-19T00:50:09;17.53;;;13.80;;
14276;SDS011;7222;57.346;12.150;2023-09-19T00:52:39;18.23;;;14.10;;
14276;SDS011;7222;57.346;12.150;2023-09-19T00:55:09;21.10;;;14.30;;
14276;SDS011;7222;57.346;12.150;2023-09-19T00:57:38;18.97;;;14.43;;
14276;SDS011;7222;57.346;12.150;2023-09-19T01:00:07;16.70;;;13.63;;
14276;SDS011;7222;57.346;12.150;2023-09-19T01:02:40;17.07;;;14.47;;
14276;SDS011;7222;57.346;12.150;2023-09-19T01:05:09;20.90;;;14.40;;
14276;SDS011;7222;57.346;12.150;2023-09-19T01:07:41;19.83;;;15.93;;
14276;SDS011;7222;57.346;12.150;2023-09-19T01:10:14;20.53;;;14.50;;
14276;SDS011;7222;57.346;12.150;2023-09-19T01:12:46;19.00;;;14.97;;
14276;SDS011;7222;57.346;12.150;2023-09-19T01:15:21;20.97;;;15.83;;
14276;SDS011;7222;57.346;12.150;2023-09-19T01:17:56;21.70;;;16.20;;
14276;SDS011;7222;57.346;12.150;2023-09-19T01:20:32;25.50;;;18.57;;
14276;SDS011;7222;57.346;12.150;2023-09-19T01:23:10;24.87;;;18.07;;
14276;SDS011;7222;57.346;12.150;2023-09-19T01:26:02;27.27;;;19.67;;
14276;SDS011;7222;57.346;12.150;2023-09-19T01:28:45;25.93;;;17.37;;
14276;SDS011;7222;57.346;12.150;2023-09-19T01:31:22;29.90;;;21.60;;
14276;SDS011;7222;57.346;12.150;2023-09-19T01:33:58;23.93;;;18.50;;
14276;SDS011;7222;57.346;12.150;2023-09-19T01:36:30;29.63;;;19.07;;
14276;SDS011;7222;57.346;12.150;2023-09-19T01:39:00;26.70;;;19.47;;
14276;SDS011;7222;57.346;12.150;2023-09-19T01:41:33;25.77;;;19.63;;
14276;SDS011;7222;57.346;12.150;2023-09-19T01:44:21;28.10;;;21.37;;
14276;SDS011;7222;57.346;12.150;2023-09-19T01:46:53;26.57;;;22.90;;
14276;SDS011;7222;57.346;12.150;2023-09-19T01:49:27;24.80;;;17.80;;
14276;SDS011;7222;57.346;12.150;2023-09-19T01:52:05;25.50;;;21.87;;
14276;SDS011;7222;57.346;12.150;2023-09-19T01:54:40;24.47;;;19.70;;
14276;SDS011;7222;57.346;12.150;2023-09-19T01:57:15;24.60;;;18.00;;
14276;SDS011;7222;57.346;12.150;2023-09-19T01:59:48;24.53;;;17.27;;
14276;SDS011;7222;57.346;12.150;2023-09-19T02:02:23;21.90;;;16.80;;
14276;SDS011;7222;57.346;12.150;2023-09-19T02:04:52;20.97;;;16.53;;
14276;SDS011;7222;57.346;12.150;2023-09-19T02:07:21;21.27;;;17.10;;
14276;SDS011;7222;57.346;12.150;2023-09-19T02:09:49;19.23;;;17.20;;
14276;SDS011;7222;57.346;12.150;2023-09-19T02:12:16;22.30;;;15.67;;
14276;SDS011;7222;57.346;12.150;2023-09-19T02:14:43;20.40;;;15.17;;
14276;SDS011;7222;57.346;12.150;2023-09-19T02:17:10;15.93;;;13.10;;
14276;SDS011;7222;57.346;12.150;2023-09-19T02:19:38;18.93;;;15.17;;
14276;SDS011;7222;57.346;12.150;2023-09-19T02:22:06;18.90;;;14.03;;
14276;SDS011;7222;57.346;12.150;2023-09-19T02:24:35;12.77;;;11.43;;
14276;SDS011;7222;57.346;12.150;2023-09-19T02:27:03;16.07;;;11.47;;
14276;SDS011;7222;57.346;12.150;2023-09-19T02:29:32;14.37;;;10.20;;
14276;SDS011;7222;57.346;12.150;2023-09-19T02:32:00;9.63;;;7.97;;
14276;SDS011;7222;57.346;12.150;2023-09-19T02:34:27;10.30;;;7.93;;
14276;SDS011;7222;57.346;12.150;2023-09-19T02:37:03;10.93;;;6.10;;
14276;SDS011;7222;57.346;12.150;2023-09-19T02:39:31;7.07;;;6.17;;
14276;SDS011;7222;57.346;12.150;2023-09-19T02:41:58;9.67;;;5.70;;
14276;SDS011;7222;57.346;12.150;2023-09-19T02:44:25;8.80;;;5.33;;
14276;SDS011;7222;57.346;12.150;2023-09-19T02:46:52;6.70;;;4.93;;
14276;SDS011;7222;57.346;12.150;2023-09-19T02:49:19;8.80;;;5.13;;
14276;SDS011;7222;57.346;12.150;2023-09-19T02:51:55;5.90;;;5.27;;
14276;SDS011;7222;57.346;12.150;2023-09-19T02:54:25;8.70;;;5.23;;
14276;SDS011;7222;57.346;12.150;2023-09-19T02:56:52;5.80;;;4.83;;
14276;SDS011;7222;57.346;12.150;2023-09-19T02:59:19;6.80;;;5.20;;
14276;SDS011;7222;57.346;12.150;2023-09-19T03:01:47;7.57;;;5.37;;
14276;SDS011;7222;57.346;12.150;2023-09-19T03:04:14;7.83;;;4.57;;
14276;SDS011;7222;57.346;12.150;2023-09-19T03:06:45;4.70;;;4.30;;
14276;SDS011;7222;57.346;12.150;2023-09-19T03:09:14;8.70;;;4.87;;
14276;SDS011;7222;57.346;12.150;2023-09-19T03:11:42;5.87;;;3.93;;
14276;SDS011;7222;57.346;12.150;2023-09-19T03:14:11;4.67;;;2.87;;
14276;SDS011;7222;57.346;12.150;2023-09-19T03:16:40;4.57;;;2.70;;
14276;SDS011;7222;57.346;12.150;2023-09-19T03:19:12;5.63;;;2.90;;
14276;SDS011;7222;57.346;12.150;2023-09-19T03:21:40;4.20;;;2.23;;
14276;SDS011;7222;57.346;12.150;2023-09-19T03:24:07;6.33;;;3.33;;
14276;SDS011;7222;57.346;12.150;2023-09-19T03:26:34;7.00;;;3.00;;
14276;SDS011;7222;57.346;12.150;2023-09-19T03:29:05;5.47;;;2.70;;
14276;SDS011;7222;57.346;12.150;2023-09-19T03:31:33;6.73;;;2.93;;
14276;SDS011;7222;57.346;12.150;2023-09-19T03:34:01;6.67;;;3.30;;
14276;SDS011;7222;57.346;12.150;2023-09-19T03:36:29;8.97;;;3.50;;
14276;SDS011;7222;57.346;12.150;2023-09-19T03:38:57;8.63;;;3.57;;
14276;SDS011;7222;57.346;12.150;2023-09-19T03:41:24;5.63;;;2.93;;
14276;SDS011;7222;57.346;12.150;2023-09-19T03:43:51;5.50;;;3.33;;
14276;SDS011;7222;57.346;12.150;2023-09-19T03:46:19;6.57;;;3.27;;
14276;SDS011;7222;57.346;12.150;2023-09-19T03:48:47;4.53;;;3.00;;
14276;SDS011;7222;57.346;12.150;2023-09-19T03:51:14;5.93;;;3.10;;
14276;SDS011;7222;57.346;12.150;2023-09-19T03:53:41;7.10;;;2.87;;
14276;SDS011;7222;57.346;12.150;2023-09-19T03:56:08;6.33;;;3.53;;
14276;SDS011;7222;57.346;12.150;2023-09-19T03:58:35;6.13;;;3.00;;
14276;SDS011;7222;57.346;12.150;2023-09-19T04:01:04;6.27;;;2.93;;
14276;SDS011;7222;57.346;12.150;2023-09-19T04:03:34;7.63;;;3.30;;
14276;SDS011;7222;57.346;12.150;2023-09-19T04:06:11;10.20;;;3.13;;
14276;SDS011;7222;57.346;12.150;2023-09-19T04:08:39;5.63;;;3.40;;
14276;SDS011;7222;57.346;12.150;2023-09-19T04:11:06;6.93;;;2.97;;
14276;SDS011;7222;57.346;12.150;2023-09-19T04:13:33;5.30;;;3.27;;
14276;SDS011;7222;57.346;12.150;2023-09-19T04:16:00;7.30;;;3.30;;
14276;SDS011;7222;57.346;12.150;2023-09-19T04:18:27;6.60;;;3.43;;
14276;SDS011;7222;57.346;12.150;2023-09-19T04:20:59;7.73;;;3.50;;
14276;SDS011;7222;57.346;12.150;2023-09-19T04:23:27;6.67;;;3.37;;
14276;SDS011;7222;57.346;12.150;2023-09-19T04:25:54;5.90;;;2.63;;
14276;SDS011;7222;57.346;12.150;2023-09-19T04:28:22;5.87;;;2.67;;
14276;SDS011;7222;57.346;12.150;2023-09-19T04:30:49;3.97;;;1.80;;
14276;SDS011;7222;57.346;12.150;2023-09-19T04:33:16;3.43;;;1.77;;
14276;SDS011;7222;57.346;12.150;2023-09-19T04:35:43;4.37;;;1.63;;
14276;SDS011;7222;57.346;12.150;2023-09-19T04:38:12;5.43;;;2.10;;
14276;SDS011;7222;57.346;12.150;2023-09-19T04:40:40;5.87;;;1.73;;
14276;SDS011;7222;57.346;12.150;2023-09-19T04:43:07;5.67;;;1.40;;
14276;SDS011;7222;57.346;12.150;2023-09-19T04:45:34;4.77;;;1.40;;
14276;SDS011;7222;57.346;12.150;2023-09-19T04:48:01;4.67;;;1.50;;
14276;SDS011;7222;57.346;12.150;2023-09-19T04:50:27;5.23;;;1.70;;
14276;SDS011;7222;57.346;12.150;2023-09-19T04:52:54;3.90;;;1.33;;
14276;SDS011;7222;57.346;12.150;2023-09-19T04:55:23;4.77;;;1.40;;
14276;SDS011;7222;57.346;12.150;2023-09-19T04:57:51;6.53;;;2.13;;
14276;SDS011;7222;57.346;12.150;2023-09-19T05:00:19;3.77;;;1.13;;
14276;SDS011;7222;57.346;12.150;2023-09-19T05:02:49;4.60;;;1.40;;
14276;SDS011;7222;57.346;12.150;2023-09-19T05:05:16;5.70;;;1.80;;
14276;SDS011;7222;57.346;12.150;2023-09-19T05:07:44;3.77;;;1.43;;
14276;SDS011;7222;57.346;12.150;2023-09-19T05:10:12;7.70;;;1.67;;
14276;SDS011;7222;57.346;12.150;2023-09-19T05:12:40;5.17;;;1.80;;
14276;SDS011;7222;57.346;12.150;2023-09-19T05:15:10;3.00;;;1.40;;
14276;SDS011;7222;57.346;12.150;2023-09-19T05:17:37;6.30;;;1.90;;
14276;SDS011;7222;57.346;12.150;2023-09-19T05:20:05;2.40;;;1.40;;
14276;SDS011;7222;57.346;12.150;2023-09-19T05:22:46;6.43;;;1.93;;
14276;SDS011;7222;57.346;12.150;2023-09-19T05:25:13;4.20;;;1.70;;
14276;SDS011;7222;57.346;12.150;2023-09-19T05:27:42;7.43;;;2.20;;
14276;SDS011;7222;57.346;12.150;2023-09-19T05:30:10;4.17;;;2.00;;
14276;SDS011;7222;57.346;12.150;2023-09-19T05:32:39;4.17;;;1.73;;
14276;SDS011;7222;57.346;12.150;2023-09-19T05:35:06;4.60;;;1.77;;
14276;SDS011;7222;57.346;12.150;2023-09-19T05:37:34;6.57;;;1.90;;
14276;SDS011;7222;57.346;12.150;2023-09-19T05:40:01;4.83;;;2.13;;
14276;SDS011;7222;57.346;12.150;2023-09-19T05:42:34;4.93;;;2.73;;
14276;SDS011;7222;57.346;12.150;2023-09-19T05:45:03;3.97;;;1.73;;
14276;SDS011;7222;57.346;12.150;2023-09-19T05:47:31;3.57;;;1.60;;
14276;SDS011;7222;57.346;12.150;2023-09-19T05:49:59;3.83;;;1.63;;
14276;SDS011;7222;57.346;12.150;2023-09-19T05:52:28;5.30;;;2.00;;
14276;SDS011;7222;57.346;12.150;2023-09-19T05:54:55;3.87;;;1.50;;
14276;SDS011;7222;57.346;12.150;2023-09-19T05:57:22;4.03;;;1.87;;
14276;SDS011;7222;57.346;12.150;2023-09-19T05:59:50;5.33;;;1.80;;
14276;SDS011;7222;57.346;12.150;2023-09-19T06:02:18;4.97;;;1.67;;
14276;SDS011;7222;57.346;12.150;2023-09-19T06:04:45;6.43;;;2.13;;
14276;SDS011;7222;57.346;12.150;2023-09-19T06:07:12;4.60;;;1.60;;
14276;SDS011;7222;57.346;12.150;2023-09-19T06:09:41;9.03;;;2.40;;
14276;SDS011;7222;57.346;12.150;2023-09-19T06:12:08;5.53;;;2.10;;
14276;SDS011;7222;57.346;12.150;2023-09-19T06:14:38;4.93;;;2.10;;
14276;SDS011;7222;57.346;12.150;2023-09-19T06:17:06;6.87;;;1.93;;
14276;SDS011;7222;57.346;12.150;2023-09-19T06:19:34;4.60;;;2.80;;
14276;SDS011;7222;57.346;12.150;2023-09-19T06:22:01;5.10;;;1.70;;
14276;SDS011;7222;57.346;12.150;2023-09-19T06:24:29;4.47;;;2.07;;
14276;SDS011;7222;57.346;12.150;2023-09-19T06:26:56;3.83;;;1.70;;
14276;SDS011;7222;57.346;12.150;2023-09-19T06:29:26;4.87;;;2.00;;
14276;SDS011;7222;57.346;12.150;2023-09-19T06:31:53;3.83;;;1.67;;
14276;SDS011;7222;57.346;12.150;2023-09-19T06:34:20;3.03;;;1.83;;
14276;SDS011;7222;57.346;12.150;2023-09-19T06:36:51;3.63;;;1.80;;
14276;SDS011;7222;57.346;12.150;2023-09-19T06:39:20;5.20;;;1.90;;
14276;SDS011;7222;57.346;12.150;2023-09-19T06:41:48;5.53;;;1.70;;
14276;SDS011;7222;57.346;12.150;2023-09-19T06:44:15;3.60;;;1.90;;
14276;SDS011;7222;57.346;12.150;2023-09-19T06:46:43;4.20;;;1.80;;
14276;SDS011;7222;57.346;12.150;2023-09-19T06:49:11;6.83;;;1.90;;
14276;SDS011;7222;57.346;12.150;2023-09-19T06:51:40;5.20;;;1.90;;
14276;SDS011;7222;57.346;12.150;2023-09-19T06:54:10;6.63;;;2.20;;
14276;SDS011;7222;57.346;12.150;2023-09-19T06:56:37;4.53;;;2.00;;
14276;SDS011;7222;57.346;12.150;2023-09-19T06:59:06;7.40;;;2.00;;
14276;SDS011;7222;57.346;12.150;2023-09-19T07:01:33;2.60;;;1.90;;
14276;SDS011;7222;57.346;12.150;2023-09-19T07:04:02;7.40;;;2.80;;
14276;SDS011;7222;57.346;12.150;2023-09-19T07:06:30;7.93;;;2.00;;
14276;SDS011;7222;57.346;12.150;2023-09-19T07:08:57;6.57;;;2.10;;
14276;SDS011;7222;57.346;12.150;2023-09-19T07:11:25;5.03;;;2.17;;
14276;SDS011;7222;57.346;12.150;2023-09-19T07:13:52;7.57;;;2.23;;
14276;SDS011;7222;57.346;12.150;2023-09-19T07:16:19;4.97;;;1.40;;
14276;SDS011;7222;57.346;12.150;2023-09-19T07:18:55;3.87;;;1.37;;
14276;SDS011;7222;57.346;12.150;2023-09-19T07:21:22;4.20;;;1.57;;
14276;SDS011;7222;57.346;12.150;2023-09-19T07:23:49;2.50;;;1.10;;
14276;SDS011;7222;57.346;12.150;2023-09-19T07:26:16;2.37;;;1.60;;
14276;SDS011;7222;57.346;12.150;2023-09-19T07:28:45;6.50;;;1.50;;
14276;SDS011;7222;57.346;12.150;2023-09-19T07:31:12;3.40;;;1.50;;
14276;SDS011;7222;57.346;12.150;2023-09-19T07:33:40;6.07;;;1.97;;
14276;SDS011;7222;57.346;12.150;2023-09-19T07:36:09;3.83;;;1.50;;
14276;SDS011;7222;57.346;12.150;2023-09-19T07:38:38;6.20;;;1.63;;
14276;SDS011;7222;57.346;12.150;2023-09-19T07:41:06;6.33;;;2.10;;
14276;SDS011;7222;57.346;12.150;2023-09-19T07:43:34;6.00;;;1.60;;
14276;SDS011;7222;57.346;12.150;2023-09-19T07:46:04;3.47;;;1.57;;
14276;SDS011;7222;57.346;12.150;2023-09-19T07:48:32;5.73;;;3.40;;
14276;SDS011;7222;57.346;12.150;2023-09-19T07:51:03;4.10;;;1.70;;
14276;SDS011;7222;57.346;12.150;2023-09-19T07:53:32;4.60;;;2.33;;
14276;SDS011;7222;57.346;12.150;2023-09-19T07:56:04;9.00;;;2.50;;
14276;SDS011;7222;57.346;12.150;2023-09-19T07:58:33;3.33;;;1.60;;
14276;SDS011;7222;57.346;12.150;2023-09-19T08:01:06;9.60;;;2.70;;
14276;SDS011;7222;57.346;12.150;2023-09-19T08:03:35;6.13;;;2.30;;
14276;SDS011;7222;57.346;12.150;2023-09-19T08:06:05;4.83;;;1.80;;
14276;SDS011;7222;57.346;12.150;2023-09-19T08:08:33;3.73;;;1.77;;
14276;SDS011;7222;57.346;12.150;2023-09-19T08:11:02;2.93;;;1.33;;
14276;SDS011;7222;57.346;12.150;2023-09-19T08:13:35;2.83;;;1.60;;
14276;SDS011;7222;57.346;12.150;2023-09-19T08:16:07;4.90;;;1.80;;
14276;SDS011;7222;57.346;12.150;2023-09-19T08:18:35;9.00;;;1.70;;
14276;SDS011;7222;57.346;12.150;2023-09-19T08:21:03;6.40;;;1.77;;
14276;SDS011;7222;57.346;12.150;2023-09-19T08:23:29;4.70;;;1.53;;
14276;SDS011;7222;57.346;12.150;2023-09-19T08:25:58;2.27;;;1.20;;
14276;SDS011;7222;57.346;12.150;2023-09-19T08:28:28;3.50;;;1.57;;
14276;SDS011;7222;57.346;12.150;2023-09-19T08:30:55;3.83;;;1.87;;
14276;SDS011;7222;57.346;12.150;2023-09-19T08:33:24;4.90;;;2.00;;
14276;SDS011;7222;57.346;12.150;2023-09-19T08:35:51;5.93;;;1.90;;
14276;SDS011;7222;57.346;12.150;2023-09-19T08:38:18;3.27;;;1.53;;
14276;SDS011;7222;57.346;12.150;2023-09-19T08:40:45;4.63;;;1.70;;
14276;SDS011;7222;57.346;12.150;2023-09-19T08:43:12;6.67;;;1.90;;
14276;SDS011;7222;57.346;12.150;2023-09-19T08:45:39;4.27;;;2.00;;
14276;SDS011;7222;57.346;12.150;2023-09-19T08:48:19;4.87;;;2.50;;
14276;SDS011;7222;57.346;12.150;2023-09-19T08:50:54;4.97;;;2.10;;
14276;SDS011;7222;57.346;12.150;2023-09-19T08:53:26;6.23;;;2.33;;
14276;SDS011;7222;57.346;12.150;2023-09-19T08:55:54;5.70;;;2.10;;
14276;SDS011;7222;57.346;12.150;2023-09-19T08:58:24;7.20;;;1.70;;
14276;SDS011;7222;57.346;12.150;2023-09-19T09:00:54;6.30;;;1.87;;
14276;SDS011;7222;57.346;12.150;2023-09-19T09:03:26;4.77;;;1.70;;
14276;SDS011;7222;57.346;12.150;2023-09-19T09:05:58;3.60;;;1.57;;
14276;SDS011;7222;57.346;12.150;2023-09-19T09:08:26;5.07;;;1.50;;
14276;SDS011;7222;57.346;12.150;2023-09-19T09:10:56;8.23;;;1.93;;
14276;SDS011;7222;57.346;12.150;2023-09-19T09:13:24;3.53;;;1.70;;
14276;SDS011;7222;57.346;12.150;2023-09-19T09:15:52;5.37;;;1.57;;
14276;SDS011;7222;57.346;12.150;2023-09-19T09:18:20;5.30;;;1.67;;
14276;SDS011;7222;57.346;12.150;2023-09-19T09:20:47;4.37;;;1.70;;
14276;SDS011;7222;57.346;12.150;2023-09-19T09:23:16;4.07;;;2.03;;
14276;SDS011;7222;57.346;12.150;2023-09-19T09:25:47;2.53;;;1.57;;
14276;SDS011;7222;57.346;12.150;2023-09-19T09:28:19;4.07;;;1.50;;
14276;SDS011;7222;57.346;12.150;2023-09-19T09:30:47;2.60;;;1.80;;
14276;SDS011;7222;57.346;12.150;2023-09-19T09:33:15;4.33;;;1.73;;
14276;SDS011;7222;57.346;12.150;2023-09-19T09:35:49;3.40;;;1.50;;
14276;SDS011;7222;57.346;12.150;2023-09-19T09:38:20;5.17;;;1.37;;
14276;SDS011;7222;57.346;12.150;2023-09-19T09:40:52;2.23;;;1.20;;
14276;SDS011;7222;57.346;12.150;2023-09-19T09:43:29;5.10;;;1.63;;
14276;SDS011;7222;57.346;12.150;2023-09-19T09:46:10;3.73;;;1.30;;
14276;SDS011;7222;57.346;12.150;2023-09-19T09:48:56;3.03;;;1.20;;
14276;SDS011;7222;57.346;12.150;2023-09-19T09:51:50;1.97;;;1.30;;
14276;SDS011;7222;57.346;12.150;2023-09-19T09:54:26;3.10;;;1.30;;
14276;SDS011;7222;57.346;12.150;2023-09-19T09:57:01;4.00;;;1.13;;
14276;SDS011;7222;57.346;12.150;2023-09-19T09:59:51;3.60;;;1.47;;
14276;SDS011;7222;57.346;12.150;2023-09-19T10:02:21;3.67;;;1.37;;
14276;SDS011;7222;57.346;12.150;2023-09-19T10:04:54;2.87;;;1.23;;
14276;SDS011;7222;57.346;12.150;2023-09-19T10:07:34;2.70;;;1.53;;
14276;SDS011;7222;57.346;12.150;2023-09-19T10:10:05;3.30;;;1.30;;
14276;SDS011;7222;57.346;12.150;2023-09-19T10:12:43;3.43;;;1.23;;
14276;SDS011;7222;57.346;12.150;2023-09-19T10:15:15;2.97;;;1.27;;
14276;SDS011;7222;57.346;12.150;2023-09-19T10:17:45;3.20;;;1.60;;
14276;SDS011;7222;57.346;12.150;2023-09-19T10:20:13;4.30;;;1.30;;
14276;SDS011;7222;57.346;12.150;2023-09-19T10:23:00;3.33;;;1.37;;
14276;SDS011;7222;57.346;12.150;2023-09-19T10:25:36;4.43;;;1.37;;
14276;SDS011;7222;57.346;12.150;2023-09-19T10:28:05;4.63;;;1.70;;
14276;SDS011;7222;57.346;12.150;2023-09-19T10:30:40;3.03;;;1.27;;
14276;SDS011;7222;57.346;12.150;2023-09-19T10:33:10;5.77;;;1.70;;
14276;SDS011;7222;57.346;12.150;2023-09-19T10:35:39;4.77;;;1.47;;
14276;SDS011;7222;57.346;12.150;2023-09-19T10:38:09;2.47;;;1.43;;
14276;SDS011;7222;57.346;12.150;2023-09-19T10:40:39;2.67;;;1.50;;
14276;SDS011;7222;57.346;12.150;2023-09-19T10:43:11;4.40;;;1.40;;
14276;SDS011;7222;57.346;12.150;2023-09-19T10:45:42;1.57;;;1.20;;
14276;SDS011;7222;57.346;12.150;2023-09-19T10:48:12;2.70;;;1.10;;
14276;SDS011;7222;57.346;12.150;2023-09-19T10:50:42;2.87;;;1.70;;
14276;SDS011;7222;57.346;12.150;2023-09-19T10:53:12;1.87;;;0.80;;
14276;SDS011;7222;57.346;12.150;2023-09-19T10:55:48;2.60;;;1.40;;
14276;SDS011;7222;57.346;12.150;2023-09-19T10:58:26;3.43;;;1.33;;
14276;SDS011;7222;57.346;12.150;2023-09-19T11:00:55;3.33;;;1.20;;
14276;SDS011;7222;57.346;12.150;2023-09-19T11:03:27;4.60;;;1.33;;
14276;SDS011;7222;57.346;12.150;2023-09-19T11:06:05;2.23;;;1.27;;
14276;SDS011;7222;57.346;12.150;2023-09-19T11:08:52;3.57;;;1.40;;
14276;SDS011;7222;57.346;12.150;2023-09-19T11:14:28;2.23;;;1.13;;
14276;SDS011;7222;57.346;12.150;2023-09-19T11:20:19;3.23;;;1.20;;
14276;SDS011;7222;57.346;12.150;2023-09-19T11:23:22;3.23;;;1.40;;
14276;SDS011;7222;57.346;12.150;2023-09-19T11:25:51;2.13;;;1.00;;
14276;SDS011;7222;57.346;12.150;2023-09-19T11:28:36;1.73;;;1.13;;
14276;SDS011;7222;57.346;12.150;2023-09-19T11:40:10;2.43;;;1.10;;
14276;SDS011;7222;57.346;12.150;2023-09-19T11:42:42;3.00;;;1.00;;
14276;SDS011;7222;57.346;12.150;2023-09-19T11:48:13;1.13;;;1.00;;
14276;SDS011;7222;57.346;12.150;2023-09-19T11:50:41;4.13;;;1.10;;
14276;SDS011;7222;57.346;12.150;2023-09-19T11:53:09;3.07;;;1.00;;
14276;SDS011;7222;57.346;12.150;2023-09-19T11:55:37;3.83;;;1.17;;
14276;SDS011;7222;57.346;12.150;2023-09-19T11:58:06;2.27;;;1.03;;
14276;SDS011;7222;57.346;12.150;2023-09-19T12:00:34;3.07;;;1.37;;
14276;SDS011;7222;57.346;12.150;2023-09-19T12:03:06;2.63;;;1.23;;
14276;SDS011;7222;57.346;12.150;2023-09-19T12:05:37;2.73;;;1.10;;
14276;SDS011;7222;57.346;12.150;2023-09-19T12:08:06;3.53;;;1.10;;
14276;SDS011;7222;57.346;12.150;2023-09-19T12:10:44;4.13;;;1.27;;
14276;SDS011;7222;57.346;12.150;2023-09-19T12:13:17;3.17;;;1.33;;
14276;SDS011;7222;57.346;12.150;2023-09-19T12:15:45;2.80;;;1.23;;
14276;SDS011;7222;57.346;12.150;2023-09-19T12:18:26;4.57;;;1.53;;
14276;SDS011;7222;57.346;12.150;2023-09-19T12:20:56;3.63;;;1.40;;
14276;SDS011;7222;57.346;12.150;2023-09-19T12:23:25;4.77;;;1.40;;
14276;SDS011;7222;57.346;12.150;2023-09-19T12:25:52;2.23;;;0.90;;
14276;SDS011;7222;57.346;12.150;2023-09-19T12:28:22;4.20;;;1.40;;
14276;SDS011;7222;57.346;12.150;2023-09-19T12:30:53;5.13;;;1.47;;
14276;SDS011;7222;57.346;12.150;2023-09-19T12:33:23;4.00;;;0.90;;
14276;SDS011;7222;57.346;12.150;2023-09-19T12:35:51;4.87;;;1.57;;
14276;SDS011;7222;57.346;12.150;2023-09-19T12:38:24;2.03;;;1.23;;
14276;SDS011;7222;57.346;12.150;2023-09-19T12:40:53;3.67;;;1.33;;
14276;SDS011;7222;57.346;12.150;2023-09-19T12:43:24;2.63;;;1.07;;
14276;SDS011;7222;57.346;12.150;2023-09-19T12:45:52;4.63;;;1.27;;
14276;SDS011;7222;57.346;12.150;2023-09-19T12:48:22;4.93;;;1.30;;
14276;SDS011;7222;57.346;12.150;2023-09-19T12:51:03;3.43;;;1.30;;
14276;SDS011;7222;57.346;12.150;2023-09-19T12:53:38;2.37;;;1.10;;
14276;SDS011;7222;57.346;12.150;2023-09-19T12:56:07;3.43;;;1.30;;
14276;SDS011;7222;57.346;12.150;2023-09-19T12:58:48;5.63;;;1.50;;
14276;SDS011;7222;57.346;12.150;2023-09-19T13:01:16;4.93;;;2.43;;
14276;SDS011;7222;57.346;12.150;2023-09-19T13:03:43;2.43;;;1.20;;
14276;SDS011;7222;57.346;12.150;2023-09-19T13:06:11;4.27;;;1.57;;
14276;SDS011;7222;57.346;12.150;2023-09-19T13:08:43;3.73;;;1.10;;
14276;SDS011;7222;57.346;12.150;2023-09-19T13:11:19;3.43;;;1.37;;
14276;SDS011;7222;57.346;12.150;2023-09-19T13:13:47;1.73;;;1.10;;
14276;SDS011;7222;57.346;12.150;2023-09-19T13:16:20;3.37;;;1.00;;
14276;SDS011;7222;57.346;12.150;2023-09-19T13:18:49;1.77;;;1.10;;
14276;SDS011;7222;57.346;12.150;2023-09-19T13:21:27;4.13;;;1.20;;
14276;SDS011;7222;57.346;12.150;2023-09-19T13:26:52;3.03;;;1.13;;
14276;SDS011;7222;57.346;12.150;2023-09-19T13:29:20;1.37;;;0.83;;
14276;SDS011;7222;57.346;12.150;2023-09-19T13:31:48;1.70;;;1.10;;
14276;SDS011;7222;57.346;12.150;2023-09-19T13:34:15;2.67;;;0.93;;
14276;SDS011;7222;57.346;12.150;2023-09-19T13:36:43;2.30;;;1.10;;
14276;SDS011;7222;57.346;12.150;2023-09-19T13:39:13;4.53;;;1.47;;
14276;SDS011;7222;57.346;12.150;2023-09-19T13:41:43;3.13;;;1.27;;
14276;SDS011;7222;57.346;12.150;2023-09-19T13:44:11;4.30;;;1.10;;
14276;SDS011;7222;57.346;12.150;2023-09-19T13:46:39;4.17;;;1.20;;
14276;SDS011;7222;57.346;12.150;2023-09-19T13:49:10;3.23;;;1.30;;
14276;SDS011;7222;57.346;12.150;2023-09-19T13:51:37;3.57;;;1.37;;
14276;SDS011;7222;57.346;12.150;2023-09-19T13:54:08;3.60;;;1.20;;
14276;SDS011;7222;57.346;12.150;2023-09-19T13:56:37;2.83;;;1.00;;
14276;SDS011;7222;57.346;12.150;2023-09-19T13:59:05;2.70;;;1.10;;
14276;SDS011;7222;57.346;12.150;2023-09-19T14:01:32;3.10;;;1.20;;
14276;SDS011;7222;57.346;12.150;2023-09-19T14:04:06;3.63;;;1.50;;
14276;SDS011;7222;57.346;12.150;2023-09-19T14:06:33;3.17;;;1.50;;
14276;SDS011;7222;57.346;12.150;2023-09-19T14:09:00;2.77;;;1.43;;
14276;SDS011;7222;57.346;12.150;2023-09-19T14:11:29;1.63;;;1.20;;
14276;SDS011;7222;57.346;12.150;2023-09-19T14:14:09;2.37;;;1.20;;
14276;SDS011;7222;57.346;12.150;2023-09-19T14:16:36;2.90;;;1.30;;
14276;SDS011;7222;57.346;12.150;2023-09-19T14:19:04;3.37;;;1.17;;
14276;SDS011;7222;57.346;12.150;2023-09-19T14:21:33;5.53;;;2.20;;
14276;SDS011;7222;57.346;12.150;2023-09-19T14:24:01;3.63;;;1.43;;
14276;SDS011;7222;57.346;12.150;2023-09-19T14:26:29;2.87;;;1.30;;
14276;SDS011;7222;57.346;12.150;2023-09-19T14:28:56;3.20;;;1.30;;
14276;SDS011;7222;57.346;12.150;2023-09-19T14:31:24;2.77;;;1.30;;
14276;SDS011;7222;57.346;12.150;2023-09-19T14:33:53;1.70;;;1.20;;
14276;SDS011;7222;57.346;12.150;2023-09-19T14:36:22;4.70;;;1.50;;
14276;SDS011;7222;57.346;12.150;2023-09-19T14:38:51;2.80;;;1.20;;
14276;SDS011;7222;57.346;12.150;2023-09-19T14:41:20;1.77;;;1.20;;
14276;SDS011;7222;57.346;12.150;2023-09-19T14:43:47;7.47;;;1.10;;
14276;SDS011;7222;57.346;12.150;2023-09-19T14:46:14;3.50;;;1.00;;
14276;SDS011;7222;57.346;12.150;2023-09-19T14:48:43;2.73;;;1.17;;
14276;SDS011;7222;57.346;12.150;2023-09-19T14:51:13;4.23;;;1.40;;
14276;SDS011;7222;57.346;12.150;2023-09-19T14:53:41;1.83;;;1.20;;
14276;SDS011;7222;57.346;12.150;2023-09-19T14:56:08;3.37;;;1.40;;
14276;SDS011;7222;57.346;12.150;2023-09-19T14:58:36;2.27;;;1.10;;
14276;SDS011;7222;57.346;12.150;2023-09-19T15:01:07;3.53;;;1.00;;
14276;SDS011;7222;57.346;12.150;2023-09-19T15:03:35;3.80;;;1.30;;
14276;SDS011;7222;57.346;12.150;2023-09-19T15:06:06;5.97;;;1.83;;
14276;SDS011;7222;57.346;12.150;2023-09-19T15:08:35;4.07;;;1.63;;
14276;SDS011;7222;57.346;12.150;2023-09-19T15:11:03;2.03;;;1.20;;
14276;SDS011;7222;57.346;12.150;2023-09-19T15:13:31;3.57;;;1.40;;
14276;SDS011;7222;57.346;12.150;2023-09-19T15:15:59;2.93;;;1.43;;
14276;SDS011;7222;57.346;12.150;2023-09-19T15:18:27;3.10;;;1.40;;
14276;SDS011;7222;57.346;12.150;2023-09-19T15:20:55;6.87;;;1.40;;